Time;durP1;ratioP1;P1;durP2;ratioP2;P2;SDS_P1;SDS_P2;PMS_P1;PMS_P2;Temp;Humidity;BMP_temperature;BMP_pressure;BME280_temperature;BME280_humidity;BME280_pressure;Samples;Min_cycle;Max_cycle;Signal;HPM_P1;HPM_P2
2022/10/20 00:02:18;;;;;;;;;;;;;;;15.93;44.92;99968.19;4955793;28;19914;-84
2022/10/20 00:04:43;;;;;;;;;;;;;;;16.06;44.82;99968.66;4973184;28;19941;-83
2022/10/20 00:07:09;;;;;;;;;;;;;;;15.98;45.03;99977.84;4972800;28;19922;-83
2022/10/20 00:09:34;;;;;;;;;;;;;;;16.01;45.15;99972.41;4979902;28;20384;-83
2022/10/20 00:11:59;;;;;;;;;;;;;;;16.00;45.35;99975.97;4972673;28;19978;-83
2022/10/20 00:14:24;;;;;;;;;;;;;;;15.86;46.07;99974.63;4972675;28;19920;-84
2022/10/20 00:16:50;;;;;;;;;;;;;;;15.96;46.38;99979.66;4973098;28;20384;-83
2022/10/20 00:19:15;;;;;;;;;;;;;;;16.06;46.20;99971.31;4971118;28;20319;-83
2022/10/20 00:21:40;;;;;;;;;;;;;;;16.06;46.15;99965.13;4972961;28;19918;-83
2022/10/20 00:24:06;;;;;;;;;;;;;;;15.99;47.03;99960.94;4974154;28;20384;-83
2022/10/20 00:26:31;;;;;;;;;;;;;;;16.04;46.89;99967.00;4972448;28;20074;-83
2022/10/20 00:28:57;;;;;;;;;;;;;;;16.13;47.00;99966.69;4972437;28;19921;-84
2022/10/20 00:31:23;;;;;;;;;;;;;;;16.10;47.22;99956.13;4973451;28;19922;-83
2022/10/20 00:33:48;;;;;;;;;;;;;;;16.18;47.48;99956.75;4972566;28;19918;-83
2022/10/20 00:36:15;;;;;;;;;;;;;;;16.20;47.50;99959.34;4987020;28;20317;-83
2022/10/20 00:38:48;;;;;;;;;;;;;;;16.27;47.00;99955.56;4992345;28;19914;-83
2022/10/20 00:41:16;;;;;;;;;;;;;;;16.23;47.54;99949.47;4992019;28;19918;-83
2022/10/20 00:43:44;;;;;;;;;;;;;;;16.24;47.47;99959.19;4991816;28;19917;-83
2022/10/20 00:46:10;;;;;;;;;;;;;;;16.24;48.29;99951.22;4994503;28;19920;-83
2022/10/20 00:48:36;;;;;;;;;;;;;;;16.19;48.62;99941.63;4996308;28;19913;-82
2022/10/20 00:51:01;;;;;;;;;;;;;;;16.17;49.31;99938.16;4996711;28;19924;-81
2022/10/20 00:53:27;;;;;;;;;;;;;;;16.29;49.05;99941.25;4978483;28;20330;-81
2022/10/20 00:55:54;;;;;;;;;;;;;;;16.34;49.63;99937.59;4996258;28;20000;-83
2022/10/20 00:58:20;;;;;;;;;;;;;;;16.45;49.37;99930.97;4995614;28;19920;-83
2022/10/20 01:00:47;;;;;;;;;;;;;;;16.49;49.74;99931.72;4978030;28;20388;-83
2022/10/20 01:03:15;;;;;;;;;;;;;;;16.60;49.70;99934.84;4981313;28;19922;-83
2022/10/20 01:05:41;;;;;;;;;;;;;;;16.68;49.65;99926.59;4986536;28;19933;-83
2022/10/20 01:08:06;;;;;;;;;;;;;;;16.66;50.03;99920.47;4995346;28;19914;-82
2022/10/20 01:10:37;;;;;;;;;;;;;;;16.75;49.73;99925.44;4995151;28;20453;-83
2022/10/20 01:13:22;;;;;;;;;;;;;;;16.74;49.67;99926.38;4995775;28;19909;-83
2022/10/20 01:16:14;;;;;;;;;;;;;;;16.83;49.38;99927.84;4995032;28;20044;-83
2022/10/20 01:18:42;;;;;;;;;;;;;;;16.77;49.82;99931.56;4971605;28;19968;-83
2022/10/20 01:21:26;;;;;;;;;;;;;;;16.74;49.73;99933.50;4979606;28;20420;-82
2022/10/20 01:24:06;;;;;;;;;;;;;;;16.77;49.68;99936.03;4978727;28;19937;-84
2022/10/20 01:26:31;;;;;;;;;;;;;;;16.89;49.47;99940.09;4975737;28;19936;-84
2022/10/20 01:29:00;;;;;;;;;;;;;;;16.82;49.68;99947.38;4975698;28;20441;-83
2022/10/20 01:31:48;;;;;;;;;;;;;;;16.69;49.98;99938.13;4975321;28;19917;-83
2022/10/20 01:34:32;;;;;;;;;;;;;;;16.75;50.25;99944.09;4975712;28;19925;-83
2022/10/20 01:36:57;;;;;;;;;;;;;;;16.75;50.54;99941.44;4975901;28;20348;-84
2022/10/20 01:39:34;;;;;;;;;;;;;;;16.82;50.46;99939.41;4975393;28;19944;-84
2022/10/20 01:42:03;;;;;;;;;;;;;;;16.81;50.62;99940.34;4989176;28;19918;-83
2022/10/20 01:44:29;;;;;;;;;;;;;;;16.76;50.97;99940.53;4994629;28;19924;-84
2022/10/20 01:46:55;;;;;;;;;;;;;;;16.87;51.21;99939.25;4994484;28;20012;-84
2022/10/20 01:49:22;;;;;;;;;;;;;;;16.77;51.18;99939.56;4984691;28;19953;-83
2022/10/20 01:51:47;;;;;;;;;;;;;;;16.81;51.47;99943.00;4975150;28;19965;-83
2022/10/20 01:54:22;;;;;;;;;;;;;;;16.89;51.12;99945.44;4975178;28;20389;-82
2022/10/20 01:57:02;;;;;;;;;;;;;;;16.76;51.75;99942.28;4974456;28;20439;-84
2022/10/20 01:59:35;;;;;;;;;;;;;;;16.69;51.86;99946.97;4975631;28;19918;-83
2022/10/20 02:02:17;;;;;;;;;;;;;;;16.85;51.78;99955.28;4975139;28;19920;-82
2022/10/20 02:04:46;;;;;;;;;;;;;;;16.83;51.95;99954.47;4975426;28;19914;-82
2022/10/20 02:07:16;;;;;;;;;;;;;;;16.90;51.89;99956.03;4974049;28;19918;-83
2022/10/20 02:09:46;;;;;;;;;;;;;;;16.72;52.53;99954.00;4974998;28;19933;-83
2022/10/20 02:12:17;;;;;;;;;;;;;;;16.88;52.43;99952.53;4990026;28;20018;-83
2022/10/20 02:14:43;;;;;;;;;;;;;;;16.82;52.43;99963.38;4990300;28;19918;-83
2022/10/20 02:17:11;;;;;;;;;;;;;;;16.92;52.62;99975.47;4974947;28;19918;-84
2022/10/20 02:19:38;;;;;;;;;;;;;;;17.03;52.39;99971.56;4975927;28;20307;-83
2022/10/20 02:22:05;;;;;;;;;;;;;;;17.00;52.26;99981.38;4994188;28;19924;-83
2022/10/20 02:24:35;;;;;;;;;;;;;;;16.83;52.84;99973.13;4994439;28;19910;-83
2022/10/20 02:27:01;;;;;;;;;;;;;;;16.97;52.65;99981.50;4976728;28;19922;-83
2022/10/20 02:29:28;;;;;;;;;;;;;;;16.93;52.78;99987.88;4989348;28;19925;-83
2022/10/20 02:31:55;;;;;;;;;;;;;;;16.94;52.93;99989.59;4994148;28;19920;-83
2022/10/20 02:34:20;;;;;;;;;;;;;;;16.76;53.42;99982.25;4993596;28;19914;-83
2022/10/20 02:36:45;;;;;;;;;;;;;;;16.76;53.22;99984.91;4992794;28;19979;-82
2022/10/20 02:39:11;;;;;;;;;;;;;;;16.63;54.02;99979.16;4979768;28;19917;-82
2022/10/20 02:41:37;;;;;;;;;;;;;;;16.77;53.69;99989.31;4974287;28;20638;-83
2022/10/20 02:44:02;;;;;;;;;;;;;;;16.69;53.83;99988.75;4981086;28;19918;-82
2022/10/20 02:46:28;;;;;;;;;;;;;;;16.72;53.73;99993.97;4964644;28;20320;-84
2022/10/20 02:48:53;;;;;;;;;;;;;;;16.55;54.51;99998.06;4993791;28;20392;-85
2022/10/20 02:51:18;;;;;;;;;;;;;;;16.60;54.23;100001.44;4994185;28;19913;-85
2022/10/20 02:53:44;;;;;;;;;;;;;;;16.57;54.49;99998.88;4993524;28;19968;-85
2022/10/20 02:56:09;;;;;;;;;;;;;;;16.55;54.38;100011.38;4993269;28;19918;-85
2022/10/20 02:58:35;;;;;;;;;;;;;;;16.47;54.77;100008.97;4993624;28;19921;-84
2022/10/20 03:01:00;;;;;;;;;;;;;;;16.37;55.02;100014.69;4985711;28;19921;-84
2022/10/20 03:03:25;;;;;;;;;;;;;;;16.45;55.13;100015.28;4973879;28;19918;-85
2022/10/20 03:05:51;;;;;;;;;;;;;;;16.38;55.09;100017.28;4974293;28;20376;-84
2022/10/20 03:08:16;;;;;;;;;;;;;;;16.36;55.36;100019.13;4977736;28;20395;-84
2022/10/20 03:10:41;;;;;;;;;;;;;;;16.38;55.62;100027.06;4993028;28;19914;-85
2022/10/20 03:13:07;;;;;;;;;;;;;;;16.43;55.22;100027.78;4993385;28;19964;-86
2022/10/20 03:15:33;;;;;;;;;;;;;;;16.27;55.74;100032.75;4992014;28;19914;-86
2022/10/20 03:17:58;;;;;;;;;;;;;;;16.37;55.38;100026.19;4975129;28;19925;-86
2022/10/20 03:20:24;;;;;;;;;;;;;;;16.17;56.47;100034.84;4970942;28;19914;-85
2022/10/20 03:22:49;;;;;;;;;;;;;;;16.42;55.33;100023.38;4959609;28;19968;-85
2022/10/20 03:25:14;;;;;;;;;;;;;;;16.39;55.41;100028.78;4972633;28;19918;-84
2022/10/20 03:27:39;;;;;;;;;;;;;;;16.25;56.00;100032.81;4973373;28;19940;-85
2022/10/20 03:30:05;;;;;;;;;;;;;;;16.20;56.57;100028.53;4955742;28;20398;-83
2022/10/20 03:32:30;;;;;;;;;;;;;;;16.16;56.68;100029.56;4973287;28;19914;-84
2022/10/20 03:34:56;;;;;;;;;;;;;;;16.08;57.06;100028.03;4983051;28;19918;-83
2022/10/20 03:37:21;;;;;;;;;;;;;;;16.09;56.67;100035.06;4992920;28;20012;-84
2022/10/20 03:39:46;;;;;;;;;;;;;;;16.16;56.92;100030.44;4972565;28;19951;-85
2022/10/20 03:42:12;;;;;;;;;;;;;;;16.16;56.92;100030.44;4956186;28;19918;-84
2022/10/20 03:44:37;;;;;;;;;;;;;;;16.15;56.67;100039.34;4992712;28;20125;-84
2022/10/20 03:47:02;;;;;;;;;;;;;;;16.11;56.77;100041.25;4976099;28;20890;-85
2022/10/20 03:49:28;;;;;;;;;;;;;;;16.11;57.10;100046.56;4963380;28;20445;-85
2022/10/20 03:51:53;;;;;;;;;;;;;;;16.11;57.16;100045.66;4989580;28;20447;-84
2022/10/20 03:54:18;;;;;;;;;;;;;;;16.10;57.22;100050.13;4974519;28;19940;-85
2022/10/20 03:56:44;;;;;;;;;;;;;;;16.10;57.25;100054.59;4990764;28;20390;-86
2022/10/20 03:59:10;;;;;;;;;;;;;;;16.01;57.13;100054.91;4992398;28;20311;-87
2022/10/20 04:01:35;;;;;;;;;;;;;;;16.15;56.78;100057.97;4992655;28;20391;-88
2022/10/20 04:04:00;;;;;;;;;;;;;;;16.13;56.79;100057.16;4990745;28;19917;-87
2022/10/20 04:06:27;;;;;;;;;;;;;;;16.18;56.88;100049.03;4991545;28;20008;-86
2022/10/20 04:08:52;;;;;;;;;;;;;;;16.24;56.52;100060.34;4975401;28;19961;-88
2022/10/20 04:11:17;;;;;;;;;;;;;;;16.14;56.68;100058.88;4992828;28;19918;-84
2022/10/20 04:13:42;;;;;;;;;;;;;;;16.07;56.91;100062.69;4992207;28;19948;-85
2022/10/20 04:16:08;;;;;;;;;;;;;;;16.02;56.73;100062.81;4959632;28;20013;-90
2022/10/20 04:18:33;;;;;;;;;;;;;;;16.06;56.83;100058.25;4978278;28;20410;-87
2022/10/20 04:20:58;;;;;;;;;;;;;;;15.97;57.01;100062.06;4988604;28;19924;-90
2022/10/20 04:23:24;;;;;;;;;;;;;;;15.88;56.91;100054.38;4994271;28;19913;-92
2022/10/20 04:25:49;;;;;;;;;;;;;;;16.01;56.75;100055.75;4977349;28;20001;-92
2022/10/20 04:28:15;;;;;;;;;;;;;;;15.88;56.93;100057.94;4974299;28;20009;-91
2022/10/20 04:30:41;;;;;;;;;;;;;;;15.90;56.75;100064.06;4981580;28;19969;-92
2022/10/20 04:33:07;;;;;;;;;;;;;;;15.88;56.81;100065.03;4991950;28;19926;-94
2022/10/20 04:35:32;;;;;;;;;;;;;;;15.99;56.48;100062.03;4979234;28;19914;-91
2022/10/20 04:37:58;;;;;;;;;;;;;;;15.94;56.40;100070.16;4993806;28;20364;-91
2022/10/20 04:40:23;;;;;;;;;;;;;;;16.05;56.01;100081.34;4983654;28;19936;-89
2022/10/20 04:42:48;;;;;;;;;;;;;;;16.00;55.88;100085.06;4987299;28;19924;-95
2022/10/20 04:45:14;;;;;;;;;;;;;;;16.08;55.90;100091.91;4979919;28;19914;-95
2022/10/20 04:47:42;;;;;;;;;;;;;;;16.01;56.00;100095.66;5000381;28;19913;-92
2022/10/20 04:50:08;;;;;;;;;;;;;;;16.02;55.47;100089.44;4996398;28;19914;-88
2022/10/20 04:52:33;;;;;;;;;;;;;;;16.05;55.32;100096.44;4991066;28;19981;-88
2022/10/20 04:54:58;;;;;;;;;;;;;;;15.95;55.27;100095.00;4996385;28;19906;-88
2022/10/20 04:57:24;;;;;;;;;;;;;;;15.96;55.44;100099.38;4983141;28;20064;-92
2022/10/20 04:59:49;;;;;;;;;;;;;;;16.06;54.97;100108.81;4973684;28;19921;-94
2022/10/20 05:02:14;;;;;;;;;;;;;;;16.03;54.80;100108.91;4972287;28;19945;-88
2022/10/20 05:04:40;;;;;;;;;;;;;;;16.15;54.51;100111.19;4973976;28;20392;-95
2022/10/20 05:07:05;;;;;;;;;;;;;;;16.05;54.38;100112.38;4968081;28;20015;-94
2022/10/20 05:09:31;;;;;;;;;;;;;;;16.05;54.50;100110.63;4976701;28;19917;-95
2022/10/20 05:11:57;;;;;;;;;;;;;;;16.09;54.31;100114.91;4976971;28;19913;-91
2022/10/20 05:14:22;;;;;;;;;;;;;;;16.00;54.79;100117.00;4993236;28;20376;-93
2022/10/20 05:16:48;;;;;;;;;;;;;;;16.25;54.20;100133.06;4977430;28;20021;-92
2022/10/20 05:19:13;;;;;;;;;;;;;;;16.16;53.76;100133.34;4952678;28;19969;-92
2022/10/20 05:21:39;;;;;;;;;;;;;;;16.14;53.67;100141.38;4977167;28;19918;-94
2022/10/20 05:24:05;;;;;;;;;;;;;;;16.27;53.74;100152.53;4959521;28;20239;-92
2022/10/20 05:26:35;;;;;;;;;;;;;;;16.16;53.57;100150.22;4959506;28;19925;-95
2022/10/20 05:29:01;;;;;;;;;;;;;;;16.13;53.93;100160.94;4952388;28;19918;-94
2022/10/20 05:31:27;;;;;;;;;;;;;;;16.18;53.97;100160.81;4955492;28;19976;-93
2022/10/20 05:33:53;;;;;;;;;;;;;;;16.26;53.74;100164.94;4975648;28;19914;-94
2022/10/20 05:36:20;;;;;;;;;;;;;;;16.40;53.31;100169.84;4958456;28;20373;-94
2022/10/20 05:38:46;;;;;;;;;;;;;;;16.35;53.04;100169.13;4984285;28;19917;-93
2022/10/20 05:41:12;;;;;;;;;;;;;;;16.43;52.81;100172.41;4958504;28;19988;-92
2022/10/20 05:43:38;;;;;;;;;;;;;;;16.39;53.15;100183.22;4975713;28;19928;-94
2022/10/20 05:46:03;;;;;;;;;;;;;;;16.56;52.91;100183.56;4962774;28;19917;-93
2022/10/20 05:48:29;;;;;;;;;;;;;;;16.61;52.22;100186.09;4959924;28;19965;-94
2022/10/20 05:50:54;;;;;;;;;;;;;;;16.73;51.88;100196.34;4976684;28;20020;-93
2022/10/20 05:53:20;;;;;;;;;;;;;;;16.81;52.08;100194.28;4974298;28;19910;-93
2022/10/20 05:55:45;;;;;;;;;;;;;;;16.89;51.54;100206.53;4980159;28;19918;-92
2022/10/20 05:58:10;;;;;;;;;;;;;;;16.85;51.76;100203.03;4986293;28;19918;-94
2022/10/20 06:00:40;;;;;;;;;;;;;;;16.81;51.94;100209.41;4963782;28;19929;-93
2022/10/20 06:03:08;;;;;;;;;;;;;;;16.88;51.79;100215.44;4989145;28;19933;-92
2022/10/20 06:05:33;;;;;;;;;;;;;;;16.96;51.33;100218.72;4984175;28;19989;-94
2022/10/20 06:07:59;;;;;;;;;;;;;;;17.09;51.50;100220.06;4965361;28;20020;-94
2022/10/20 06:10:24;;;;;;;;;;;;;;;17.26;50.53;100215.97;4976463;28;19928;-93
2022/10/20 06:12:49;;;;;;;;;;;;;;;17.22;50.54;100219.63;4977324;28;20288;-95
2022/10/20 06:15:15;;;;;;;;;;;;;;;17.18;50.47;100227.75;4959723;28;20351;-93
2022/10/20 06:17:40;;;;;;;;;;;;;;;17.23;50.50;100242.72;4978055;28;19914;-95
2022/10/20 06:20:06;;;;;;;;;;;;;;;17.31;50.94;100254.84;4982761;28;19910;-93
2022/10/20 06:22:31;;;;;;;;;;;;;;;17.21;50.24;100261.44;4976969;28;20324;-93
2022/10/20 06:24:56;;;;;;;;;;;;;;;17.22;50.65;100263.16;4995730;28;19910;-91
2022/10/20 06:27:22;;;;;;;;;;;;;;;17.41;50.57;100267.88;4996812;28;19922;-91
2022/10/20 06:29:47;;;;;;;;;;;;;;;17.49;50.11;100269.34;4999394;28;19914;-91
2022/10/20 06:32:12;;;;;;;;;;;;;;;17.42;50.10;100270.47;4984444;28;19909;-94
2022/10/20 06:34:38;;;;;;;;;;;;;;;17.48;49.78;100277.41;4984098;28;19945;-89
2022/10/20 06:37:03;;;;;;;;;;;;;;;17.58;49.85;100264.63;4970803;28;19957;-94
2022/10/20 06:39:28;;;;;;;;;;;;;;;17.60;49.47;100281.47;4976271;28;19914;-92
2022/10/20 06:41:53;;;;;;;;;;;;;;;17.58;49.07;100281.50;4959302;28;19910;-95
2022/10/20 06:44:20;;;;;;;;;;;;;;;17.74;48.71;100278.31;4958788;28;19940;-91
2022/10/20 06:46:45;;;;;;;;;;;;;;;18.05;48.40;100281.63;4979916;28;19914;-93
2022/10/20 06:49:11;;;;;;;;;;;;;;;18.20;47.64;100284.69;4981242;28;19918;-93
2022/10/20 06:51:36;;;;;;;;;;;;;;;18.28;47.42;100281.72;4980728;28;19921;-92
2022/10/20 06:54:02;;;;;;;;;;;;;;;18.34;47.37;100295.72;4980425;28;20369;-94
2022/10/20 06:56:28;;;;;;;;;;;;;;;18.30;46.88;100285.19;4983192;28;20484;-93
2022/10/20 06:58:54;;;;;;;;;;;;;;;18.38;47.04;100292.00;4983404;28;19918;-92
2022/10/20 07:01:22;;;;;;;;;;;;;;;18.41;46.52;100282.97;4968893;28;19918;-93
2022/10/20 07:03:47;;;;;;;;;;;;;;;18.24;46.93;100289.84;4966752;28;19914;-94
2022/10/20 07:06:14;;;;;;;;;;;;;;;18.39;46.82;100284.84;4963983;28;19917;-94
2022/10/20 07:08:39;;;;;;;;;;;;;;;18.46;46.24;100285.47;4978550;28;20021;-93
2022/10/20 07:11:06;;;;;;;;;;;;;;;18.55;46.15;100293.13;4976638;28;19957;-92
2022/10/20 07:13:32;;;;;;;;;;;;;;;18.77;45.88;100287.84;4959069;28;19914;-94
2022/10/20 07:15:58;;;;;;;;;;;;;;;18.98;45.11;100283.47;4959755;28;20335;-95
2022/10/20 07:18:25;;;;;;;;;;;;;;;18.76;45.28;100292.31;4960351;28;19998;-92
2022/10/20 07:20:50;;;;;;;;;;;;;;;18.65;44.89;100283.00;4960868;28;19922;-95
2022/10/20 07:23:16;;;;;;;;;;;;;;;18.86;45.19;100289.31;4958886;28;19914;-94
2022/10/20 07:25:41;;;;;;;;;;;;;;;18.94;44.25;100296.09;4978804;28;19973;-90
2022/10/20 07:28:07;;;;;;;;;;;;;;;19.09;43.96;100288.38;4975844;28;19937;-93
2022/10/20 07:30:36;;;;;;;;;;;;;;;18.85;43.79;100283.09;4942246;28;20072;-93
2022/10/20 07:33:02;;;;;;;;;;;;;;;18.98;43.93;100282.59;4958857;28;19921;-96
2022/10/20 07:35:28;;;;;;;;;;;;;;;18.88;44.27;100276.78;4959495;28;19910;-93
2022/10/20 07:37:54;;;;;;;;;;;;;;;19.28;43.76;100284.03;4974832;28;20012;-94
2022/10/20 07:40:21;;;;;;;;;;;;;;;19.30;43.00;100278.59;4958355;28;19914;-96
2022/10/20 07:42:47;;;;;;;;;;;;;;;19.09;43.29;100275.00;4944198;28;19914;-94
2022/10/20 07:45:13;;;;;;;;;;;;;;;19.33;42.61;100278.47;4958403;28;20001;-92
2022/10/20 07:47:39;;;;;;;;;;;;;;;19.15;42.55;100285.44;4958334;28;20439;-95
2022/10/20 07:50:06;;;;;;;;;;;;;;;19.17;42.78;100272.00;4975245;28;19914;-93
2022/10/20 07:52:32;;;;;;;;;;;;;;;19.19;42.72;100280.88;4974097;28;19969;-93
2022/10/20 07:54:57;;;;;;;;;;;;;;;19.31;42.95;100283.88;4975093;28;19914;-92
2022/10/20 07:57:22;;;;;;;;;;;;;;;19.34;41.60;100285.56;4974082;28;19918;-93
2022/10/20 07:59:47;;;;;;;;;;;;;;;19.29;41.87;100284.88;4956764;28;20403;-92
2022/10/20 08:02:14;;;;;;;;;;;;;;;19.45;41.99;100285.13;4974241;28;19921;-94
2022/10/20 08:04:40;;;;;;;;;;;;;;;19.27;41.02;100295.63;4956533;28;19914;-90
2022/10/20 08:07:06;;;;;;;;;;;;;;;19.25;41.56;100291.31;4956147;28;20004;-93
2022/10/20 08:09:31;;;;;;;;;;;;;;;19.48;41.88;100290.34;4973362;28;20072;-92
2022/10/20 08:11:56;;;;;;;;;;;;;;;19.58;41.61;100293.47;4972990;28;20376;-93
2022/10/20 08:14:22;;;;;;;;;;;;;;;19.43;40.94;100287.88;4973423;28;19936;-94
2022/10/20 08:16:47;;;;;;;;;;;;;;;19.47;42.05;100284.09;4973445;28;19914;-91
2022/10/20 08:19:13;;;;;;;;;;;;;;;19.55;41.70;100282.91;4956131;28;20301;-90
2022/10/20 08:21:38;;;;;;;;;;;;;;;19.50;41.67;100283.97;4973602;28;19949;-93
2022/10/20 08:24:03;;;;;;;;;;;;;;;19.43;41.73;100286.97;4995086;28;19957;-91
2022/10/20 08:26:29;;;;;;;;;;;;;;;19.52;42.14;100291.94;4977427;28;19921;-93
2022/10/20 08:28:54;;;;;;;;;;;;;;;19.66;41.37;100294.00;4988789;28;20293;-92
2022/10/20 08:31:20;;;;;;;;;;;;;;;19.76;41.22;100287.34;4956047;28;20312;-91
2022/10/20 08:33:45;;;;;;;;;;;;;;;20.18;40.56;100282.84;4972891;28;19941;-93
2022/10/20 08:36:12;;;;;;;;;;;;;;;20.23;40.00;100291.53;4972869;28;19918;-91
2022/10/20 08:38:38;;;;;;;;;;;;;;;20.02;39.87;100282.69;4973105;28;19920;-93
2022/10/20 08:41:04;;;;;;;;;;;;;;;19.81;40.24;100274.66;4972561;28;19921;-92
2022/10/20 08:43:30;;;;;;;;;;;;;;;19.93;40.38;100281.28;4972869;28;19914;-93
2022/10/20 08:45:56;;;;;;;;;;;;;;;19.70;39.86;100278.72;4955930;28;20304;-93
2022/10/20 08:48:23;;;;;;;;;;;;;;;19.93;40.54;100277.75;4972872;28;19914;-91
2022/10/20 08:50:50;;;;;;;;;;;;;;;20.08;40.16;100281.50;4972820;28;20428;-92
2022/10/20 08:53:17;;;;;;;;;;;;;;;20.10;38.78;100282.34;4955379;28;19917;-92
2022/10/20 08:55:43;;;;;;;;;;;;;;;19.95;38.85;100279.38;4955693;28;20376;-93
2022/10/20 08:58:13;;;;;;;;;;;;;;;19.93;39.61;100264.34;4972698;28;20403;-92
2022/10/20 09:00:39;;;;;;;;;;;;;;;20.10;39.39;100272.47;4973650;28;20012;-93
2022/10/20 09:03:26;;;;;;;;;;;;;;;20.08;38.45;100282.41;4973520;28;20009;-94
2022/10/20 09:05:55;;;;;;;;;;;;;;;20.06;38.81;100280.72;4946906;28;19918;-90
2022/10/20 09:08:22;;;;;;;;;;;;;;;20.14;38.37;100275.88;4953248;28;19950;-93
2022/10/20 09:10:50;;;;;;;;;;;;;;;20.13;38.75;100276.84;4956192;28;19917;-93
2022/10/20 09:13:22;;;;;;;;;;;;;;;20.34;38.63;100283.00;4965750;28;20431;-95
2022/10/20 09:15:49;;;;;;;;;;;;;;;20.18;38.30;100286.38;4971727;28;20015;-92
2022/10/20 09:18:15;;;;;;;;;;;;;;;20.10;38.71;100285.00;4975995;28;19926;-92
2022/10/20 09:20:51;;;;;;;;;;;;;;;20.35;38.22;100277.56;4958385;28;20017;-94
2022/10/20 09:23:19;;;;;;;;;;;;;;;20.27;38.09;100286.94;4964455;28;19914;-96
2022/10/20 09:25:46;;;;;;;;;;;;;;;20.25;37.61;100278.97;4973441;28;19921;-94
2022/10/20 09:28:25;;;;;;;;;;;;;;;20.37;38.23;100277.50;4970978;28;19924;-91
2022/10/20 09:30:51;;;;;;;;;;;;;;;20.40;37.62;100280.03;4940930;28;20320;-91
2022/10/20 09:33:30;;;;;;;;;;;;;;;20.61;37.35;100275.50;4936888;29;19915;-93
2022/10/20 09:36:11;;;;;;;;;;;;;;;20.57;37.26;100273.88;4935648;29;19998;-95
2022/10/20 09:38:41;;;;;;;;;;;;;;;20.59;36.66;100269.34;4938173;29;19915;-91
2022/10/20 09:41:15;;;;;;;;;;;;;;;20.88;36.13;100265.28;4948753;29;20440;-93
2022/10/20 09:43:48;;;;;;;;;;;;;;;20.85;36.15;100265.44;4951507;29;19966;-94
2022/10/20 09:46:17;;;;;;;;;;;;;;;20.73;37.13;100266.91;4935987;29;20001;-92
2022/10/20 09:48:48;;;;;;;;;;;;;;;20.77;35.88;100259.56;4923911;29;19919;-89
2022/10/20 09:51:15;;;;;;;;;;;;;;;20.91;36.15;100264.25;4934425;29;19918;-91
2022/10/20 09:53:58;;;;;;;;;;;;;;;21.11;35.70;100264.13;4936381;29;19915;-91
2022/10/20 09:56:27;;;;;;;;;;;;;;;21.17;35.87;100262.97;4937659;29;19965;-92
2022/10/20 09:58:53;;;;;;;;;;;;;;;21.00;35.86;100261.13;4952172;29;19915;-92
2022/10/20 10:01:19;;;;;;;;;;;;;;;21.19;36.19;100262.88;4936616;29;20451;-93
2022/10/20 10:03:45;;;;;;;;;;;;;;;21.48;35.83;100263.25;4936074;29;19915;-93
2022/10/20 10:06:29;;;;;;;;;;;;;;;21.14;35.61;100263.13;4936973;29;19922;-91
2022/10/20 10:08:58;;;;;;;;;;;;;;;21.11;35.66;100265.97;4944331;29;20085;-93
2022/10/20 10:11:31;;;;;;;;;;;;;;;21.37;35.69;100266.47;4940804;29;20408;-89
2022/10/20 10:13:57;;;;;;;;;;;;;;;21.46;34.71;100266.00;4937035;29;19926;-93
2022/10/20 10:16:23;;;;;;;;;;;;;;;21.54;34.70;100265.63;4936788;29;20283;-93
2022/10/20 10:19:02;;;;;;;;;;;;;;;21.66;34.79;100256.94;4936551;29;19966;-91
2022/10/20 10:21:42;;;;;;;;;;;;;;;21.69;34.69;100261.28;4936946;29;20001;-91
2022/10/20 10:24:10;;;;;;;;;;;;;;;21.70;34.25;100252.28;4937230;29;20454;-93
2022/10/20 10:26:36;;;;;;;;;;;;;;;21.80;33.56;100256.22;4936840;29;19925;-89
2022/10/20 10:29:02;;;;;;;;;;;;;;;21.78;33.92;100247.38;4937172;29;19914;-90
2022/10/20 10:31:30;;;;;;;;;;;;;;;21.63;33.87;100227.59;4973189;28;19926;-93
2022/10/20 10:34:11;;;;;;;;;;;;;;;21.76;33.98;100249.28;4957923;28;20340;-91
2022/10/20 10:36:36;;;;;;;;;;;;;;;21.71;33.03;100244.16;4975027;28;19949;-88
2022/10/20 10:39:09;;;;;;;;;;;;;;;21.67;33.16;100242.56;4974822;28;20411;-90
2022/10/20 10:41:42;;;;;;;;;;;;;;;21.70;33.33;100241.53;4974903;28;19914;-90
2022/10/20 10:44:26;;;;;;;;;;;;;;;21.61;33.31;100230.34;4973488;28;19921;-89
2022/10/20 10:47:10;;;;;;;;;;;;;;;21.65;33.05;100231.03;4957737;28;20363;-90
2022/10/20 10:49:51;;;;;;;;;;;;;;;21.92;33.97;100225.16;4957646;28;19918;-88
2022/10/20 10:52:20;;;;;;;;;;;;;;;21.89;33.16;100219.94;4973563;28;20300;-90
2022/10/20 10:54:54;;;;;;;;;;;;;;;22.06;32.95;100219.03;4975281;28;19914;-91
2022/10/20 10:57:31;;;;;;;;;;;;;;;22.00;32.70;100222.94;4975280;28;20001;-89
2022/10/20 11:00:01;;;;;;;;;;;;;;;21.81;32.73;100228.41;4974945;28;19930;-90
2022/10/20 11:02:32;;;;;;;;;;;;;;;21.77;33.05;100218.81;4974781;28;19914;-90
2022/10/20 11:05:03;;;;;;;;;;;;;;;21.86;32.65;100214.72;4974846;28;20412;-89
2022/10/20 11:07:31;;;;;;;;;;;;;;;21.84;32.42;100214.81;4974911;28;20376;-92
2022/10/20 11:10:03;;;;;;;;;;;;;;;21.86;32.30;100212.03;4973464;28;20292;-89
2022/10/20 11:12:47;;;;;;;;;;;;;;;21.98;32.89;100208.69;4974820;28;20372;-91
2022/10/20 11:15:18;;;;;;;;;;;;;;;22.09;31.94;100202.75;4973077;28;19928;-90
2022/10/20 11:18:02;;;;;;;;;;;;;;;22.08;32.76;100207.25;4974155;28;19914;-90
2022/10/20 11:20:46;;;;;;;;;;;;;;;22.41;32.80;100200.13;4973065;28;20313;-92
2022/10/20 11:23:15;;;;;;;;;;;;;;;22.76;31.08;100191.88;4972724;28;19999;-91
2022/10/20 11:25:53;;;;;;;;;;;;;;;22.69;31.61;100200.31;4973912;28;19914;-91
2022/10/20 11:28:28;;;;;;;;;;;;;;;22.47;32.22;100194.41;4974082;28;20427;-88
2022/10/20 11:30:55;;;;;;;;;;;;;;;22.30;31.61;100196.22;4973514;28;19918;-89
2022/10/20 11:33:22;;;;;;;;;;;;;;;22.30;31.53;100193.53;4973985;28;19914;-90
2022/10/20 11:35:57;;;;;;;;;;;;;;;22.34;32.20;100189.72;4974005;28;19921;-89
2022/10/20 11:38:30;;;;;;;;;;;;;;;22.29;31.58;100185.53;4973936;28;19921;-90
2022/10/20 11:41:00;;;;;;;;;;;;;;;22.26;33.23;100188.38;4973837;28;20076;-90
2022/10/20 11:43:31;;;;;;;;;;;;;;;22.28;31.73;100194.56;4973597;28;20466;-92
2022/10/20 11:46:01;;;;;;;;;;;;;;;22.45;33.11;100191.81;4972470;28;19925;-91
2022/10/20 11:48:30;;;;;;;;;;;;;;;22.37;31.67;100186.00;4973911;28;19914;-91
2022/10/20 11:51:11;;;;;;;;;;;;;;;22.63;32.27;100178.25;4973926;28;19918;-90
2022/10/20 11:53:44;;;;;;;;;;;;;;;22.66;31.37;100187.03;4981538;28;19914;-90
2022/10/20 11:56:28;;;;;;;;;;;;;;;22.65;31.49;100179.91;4989035;28;19965;-90
2022/10/20 11:59:04;;;;;;;;;;;;;;;22.60;31.17;100173.94;4973614;28;19914;-90
2022/10/20 12:02:00;;;;;;;;;;;;;;;22.61;30.85;100170.28;4972599;28;19964;-91
2022/10/20 12:04:30;;;;;;;;;;;;;;;22.30;30.45;100179.19;4974455;28;19913;-91
2022/10/20 12:07:08;;;;;;;;;;;;;;;22.16;31.46;100180.81;4981908;28;19929;-90
2022/10/20 12:09:56;;;;;;;;;;;;;;;22.40;30.25;100176.88;4993881;28;19922;-90
2022/10/20 12:12:25;;;;;;;;;;;;;;;22.33;30.76;100176.38;4976443;28;19926;-93
2022/10/20 12:14:55;;;;;;;;;;;;;;;22.30;29.99;100172.03;4966182;28;20344;-91
2022/10/20 12:17:24;;;;;;;;;;;;;;;22.44;30.64;100170.41;4973607;28;19997;-91
2022/10/20 12:19:50;;;;;;;;;;;;;;;22.35;30.01;100177.16;4973529;28;20442;-92
2022/10/20 12:22:15;;;;;;;;;;;;;;;22.37;30.23;100164.50;4973713;28;19914;-91
2022/10/20 12:24:53;;;;;;;;;;;;;;;22.40;29.84;100169.72;4973346;28;19914;-90
2022/10/20 12:27:19;;;;;;;;;;;;;;;22.49;30.01;100160.25;4955651;28;20324;-89
2022/10/20 12:29:55;;;;;;;;;;;;;;;22.51;29.94;100159.22;4972661;28;19987;-91
2022/10/20 12:32:20;;;;;;;;;;;;;;;22.43;29.54;100158.78;4972971;28;19914;-89
2022/10/20 12:34:47;;;;;;;;;;;;;;;22.35;30.03;100153.84;4973385;28;20072;-89
2022/10/20 12:37:36;;;;;;;;;;;;;;;22.74;30.30;100159.72;4973220;28;19990;-88
2022/10/20 12:40:07;;;;;;;;;;;;;;;22.61;29.01;100159.53;4967201;28;19920;-89
2022/10/20 12:42:32;;;;;;;;;;;;;;;22.29;29.21;100161.34;4975744;28;19921;-89
2022/10/20 12:45:01;;;;;;;;;;;;;;;22.31;28.89;100154.97;4976695;28;20367;-90